createdAt,value
2023-04-18T00:01:00.516Z,100392.84
2023-04-18T00:03:33.959Z,100395.97
2023-04-18T00:06:15.674Z,100382.06
2023-04-18T00:08:54.621Z,100396.47
2023-04-18T00:11:31.617Z,100385.69
2023-04-18T00:14:12.378Z,100394.84
2023-04-18T00:16:58.579Z,100396.75
2023-04-18T00:19:37.074Z,100397.53
2023-04-18T00:22:17.638Z,100396.16
2023-04-18T00:24:58.937Z,100400.72
2023-04-18T00:27:37.198Z,100406.63
2023-04-18T00:30:15.295Z,100403.44
2023-04-18T00:32:54.652Z,100406.13
2023-04-18T00:35:38.352Z,100403.47
2023-04-18T00:38:17.567Z,100405.13
2023-04-18T00:41:06.235Z,100385.63
2023-04-18T00:43:38.248Z,100400.75
2023-04-18T00:46:17.139Z,100406.47
2023-04-18T00:48:57.003Z,100402.13
2023-04-18T00:51:40.294Z,100397.22
2023-04-18T00:54:44.691Z,100392.38
2023-04-18T00:57:23.027Z,100396.66
2023-04-18T00:59:59.173Z,100396.16
2023-04-18T01:02:50.153Z,100393.19
2023-04-18T01:05:32.987Z,100401.75
2023-04-18T01:08:07.421Z,100388.28
2023-04-18T01:10:41.990Z,100392.38
2023-04-18T01:13:29.332Z,100382.72
2023-04-18T01:16:04.652Z,100386.78
2023-04-18T01:18:40.803Z,100384.31
2023-04-18T01:21:23.372Z,100371.53
2023-04-18T01:24:09.297Z,100379.53
2023-04-18T01:26:52.440Z,100381.97
2023-04-18T01:29:28.547Z,100385.78
2023-04-18T01:32:13.410Z,100385.25
2023-04-18T01:34:47.587Z,100386.88
2023-04-18T01:37:24.185Z,100378.25
2023-04-18T01:40:01.996Z,100384.66
2023-04-18T01:42:41.188Z,100378.25
2023-04-18T01:45:20.209Z,100378.34
2023-04-18T01:47:56.531Z,100363.94
2023-04-18T01:50:33.313Z,100376.97
2023-04-18T01:53:16.402Z,100377.19
2023-04-18T01:55:54.030Z,100378.78
2023-04-18T01:58:32.248Z,100376.97
2023-04-18T02:01:08.586Z,100374.56
2023-04-18T02:03:51.141Z,100371.66
2023-04-18T02:06:29.160Z,100382.19
2023-04-18T02:09:03.036Z,100374.75
2023-04-18T02:11:37.060Z,100382.78
2023-04-18T02:14:15.212Z,100382.78
2023-04-18T02:16:53.739Z,100377.63
2023-04-18T02:19:36.196Z,100369.91
2023-04-18T02:22:12.303Z,100365.38
2023-04-18T02:24:54.942Z,100379.78
2023-04-18T02:27:27.377Z,100387.09
2023-04-18T02:30:12.328Z,100359.84
2023-04-18T02:32:47.472Z,100375.28
2023-04-18T02:35:23.207Z,100376.38
2023-04-18T02:38:08.845Z,100387.34
2023-04-18T02:40:51.772Z,100378.75
2023-04-18T02:43:35.419Z,100379.34
2023-04-18T02:46:16.472Z,100386.34
2023-04-18T02:48:54.174Z,100377.47
2023-04-18T02:51:32.146Z,100383.91
2023-04-18T02:54:12.367Z,100376.94
2023-04-18T02:57:03.741Z,100371.09
2023-04-18T03:00:01.794Z,100372.50
2023-04-18T03:03:08.846Z,100374.09
2023-04-18T03:06:13.935Z,100385.22
2023-04-18T03:08:54.170Z,100384.44
2023-04-18T03:11:49.402Z,100377.81
2023-04-18T03:14:31.153Z,100388.88
2023-04-18T03:17:10.523Z,100385.91
2023-04-18T03:19:58.182Z,100355.25
2023-04-18T03:22:37.288Z,100381.69
2023-04-18T03:25:19.222Z,100394.59
2023-04-18T03:28:13.415Z,100383.66
2023-04-18T03:30:52.135Z,100381.50
2023-04-18T03:33:24.793Z,100380.16
2023-04-18T03:36:13.418Z,100381.56
2023-04-18T03:38:44.922Z,100375.09
2023-04-18T03:41:18.268Z,100386.69
2023-04-18T03:43:51.356Z,100388.59
2023-04-18T03:46:27.139Z,100396.06
2023-04-18T03:49:06.783Z,100394.47
2023-04-18T03:51:48.957Z,100381.47
2023-04-18T03:54:26.804Z,100396.44
2023-04-18T03:57:06.744Z,100395.84
2023-04-18T03:59:52.620Z,100406.09
2023-04-18T04:02:26.769Z,100410.59
2023-04-18T04:05:05.857Z,100412.44
2023-04-18T04:07:41.116Z,100410.84
2023-04-18T04:10:17.285Z,100415.66
2023-04-18T04:12:54.791Z,100417.28
2023-04-18T04:15:32.465Z,100402.94
2023-04-18T04:18:13.869Z,100423.31
2023-04-18T04:20:56.257Z,100433.50
2023-04-18T04:23:43.810Z,100436.22
2023-04-18T04:26:31.298Z,100443.22
2023-04-18T04:29:16.465Z,100438.38
2023-04-18T04:31:50.358Z,100446.72
2023-04-18T04:34:44.467Z,100444.25
2023-04-18T04:37:19.890Z,100444.81
2023-04-18T04:40:17.099Z,100418.03
2023-04-18T04:43:15.793Z,100407.38
2023-04-18T04:46:16.492Z,100441.41
2023-04-18T04:48:57.390Z,100449.66
2023-04-18T04:51:39.654Z,100448.03
2023-04-18T04:54:14.954Z,100453.94
2023-04-18T04:56:53.306Z,100426.38
2023-04-18T04:59:27.904Z,100467.88
2023-04-18T05:02:03.984Z,100455.59
2023-04-18T05:04:40.620Z,100470.03
2023-04-18T05:07:19.299Z,100469.44
2023-04-18T05:09:56.339Z,100476.72
2023-04-18T05:12:42.432Z,100475.06
2023-04-18T05:15:21.732Z,100475.88
2023-04-18T05:17:58.437Z,100478.28
2023-04-18T05:20:32.502Z,100483.59
2023-04-18T05:23:07.204Z,100482.78
2023-04-18T05:25:50.101Z,100495.69
2023-04-18T05:28:28.900Z,100485.72
2023-04-18T05:31:04.462Z,100501.53
2023-04-18T05:33:45.887Z,100497.72
2023-04-18T05:36:18.930Z,100492.88
2023-04-18T05:39:02.765Z,100498.25
2023-04-18T05:41:37.431Z,100502.84
2023-04-18T05:44:16.316Z,100506.41
2023-04-18T05:46:54.745Z,100500.41
2023-04-18T05:49:28.275Z,100488.59
2023-04-18T05:52:03.539Z,100496.09
2023-04-18T05:54:48.508Z,100509.22
2023-04-18T05:57:26.073Z,100513.72
2023-04-18T06:00:15.970Z,100515.94
2023-04-18T06:02:50.892Z,100501.47
2023-04-18T06:05:30.869Z,100524.69
2023-04-18T06:08:08.663Z,100526.75
2023-04-18T06:10:41.634Z,100520.22
2023-04-18T06:13:21.477Z,100519.25
2023-04-18T06:15:58.499Z,100495.88
2023-04-18T06:18:39.097Z,100512.97
2023-04-18T06:21:11.810Z,100493.38
2023-04-18T06:23:52.439Z,100512.78
2023-04-18T06:26:29.549Z,100521.38
2023-04-18T06:29:05.823Z,100512.84
2023-04-18T06:31:52.278Z,100534.25
2023-04-18T06:34:39.007Z,100534.53
2023-04-18T06:37:11.586Z,100542.63
2023-04-18T06:39:43.333Z,100537.81
2023-04-18T06:42:22.021Z,100546.13
2023-04-18T06:45:00.880Z,100554.44
2023-04-18T06:47:35.046Z,100551.44
2023-04-18T06:50:08.068Z,100553.81
2023-04-18T06:52:47.891Z,100543.81
2023-04-18T06:55:24.181Z,100549.19
2023-04-18T06:57:57.340Z,100550.53
2023-04-18T07:00:29.363Z,100553.56
2023-04-18T07:03:11.282Z,100557.88
2023-04-18T07:05:43.769Z,100568.59
2023-04-18T07:08:21.513Z,100569.34
2023-04-18T07:10:57.364Z,100558.78
2023-04-18T07:13:37.325Z,100565.91
2023-04-18T07:16:09.131Z,100556.50
2023-04-18T07:18:44.484Z,100569.13
2023-04-18T07:21:17.319Z,100573.66
2023-04-18T07:23:55.375Z,100572.47
2023-04-18T07:26:37.505Z,100575.41
2023-04-18T07:29:15.994Z,100569.28
2023-04-18T07:31:50.825Z,100581.06
2023-04-18T07:34:30.123Z,100579.03
2023-04-18T07:37:08.076Z,100575.16
2023-04-18T07:39:42.132Z,100583.97
2023-04-18T07:42:19.191Z,100585.44
2023-04-18T07:44:59.589Z,100595.06
2023-04-18T07:47:36.930Z,100587.03
2023-04-18T07:50:20.657Z,100596.59
2023-04-18T07:52:57.692Z,100593.22
2023-04-18T07:55:33.462Z,100591.69
2023-04-18T07:58:10.741Z,100579.88
2023-04-18T08:00:46.369Z,100597.44
2023-04-18T08:03:42.961Z,100611.94
2023-04-18T08:06:25.281Z,100606.34
2023-04-18T08:09:09.470Z,100609.44
2023-04-18T08:11:44.300Z,100608.00
2023-04-18T08:14:22.543Z,100608.00
2023-04-18T08:16:58.525Z,100609.69
2023-04-18T08:19:31.559Z,100615.41
2023-04-18T08:22:22.988Z,100589.81
2023-04-18T08:25:04.306Z,100613.75
2023-04-18T08:27:35.667Z,100620.44
2023-04-18T08:30:15.846Z,100612.03
2023-04-18T08:32:54.611Z,100615.03
2023-04-18T08:35:39.542Z,100576.31
2023-04-18T08:38:22.800Z,100610.44
2023-04-18T08:41:01.364Z,100623.84
2023-04-18T08:43:35.743Z,100623.84
2023-04-18T08:46:11.014Z,100623.84
2023-04-18T08:48:50.160Z,100617.06
2023-04-18T08:51:29.393Z,100620.34
2023-04-18T08:54:07.556Z,100627.09
2023-04-18T08:56:46.339Z,100620.78
2023-04-18T08:59:21.955Z,100628.28
2023-04-18T09:02:04.650Z,100618.06
2023-04-18T09:04:43.456Z,100630.28
2023-04-18T09:07:20.266Z,100633.78
2023-04-18T09:10:02.077Z,100640.31
2023-04-18T09:12:40.419Z,100633.19
2023-04-18T09:15:23.682Z,100627.69
2023-04-18T09:18:05.276Z,100626.84
2023-04-18T09:20:49.805Z,100621.84
2023-04-18T09:23:32.119Z,100624.84
2023-04-18T09:26:12.074Z,100629.16
2023-04-18T09:29:01.804Z,100615.31
2023-04-18T09:31:36.024Z,100618.81
2023-04-18T09:34:15.964Z,100621.53
2023-04-18T09:37:11.659Z,100635.44
2023-04-18T09:39:50.194Z,100629.94
2023-04-18T09:42:29.657Z,100632.38
2023-04-18T09:45:19.930Z,100634.78
2023-04-18T09:48:00.667Z,100634.16
2023-04-18T09:50:37.402Z,100634.19
2023-04-18T09:53:15.188Z,100634.31
2023-04-18T09:55:52.545Z,100638.47
2023-04-18T09:58:33.257Z,100631.97
2023-04-18T10:01:05.417Z,100635.47
2023-04-18T10:03:47.507Z,100619.97
2023-04-18T10:06:25.591Z,100627.75
2023-04-18T10:09:02.832Z,100614.50
2023-04-18T10:11:43.924Z,100623.84
2023-04-18T10:14:19.369Z,100630.84
2023-04-18T10:16:53.503Z,100625.66
2023-04-18T10:19:33.114Z,100632.06
2023-04-18T10:22:12.417Z,100630.16
2023-04-18T10:24:53.907Z,100634.75
2023-04-18T10:27:54.102Z,100632.47
2023-04-18T10:31:00.646Z,100630.50
2023-04-18T10:33:42.516Z,100631.97
2023-04-18T10:36:22.893Z,100617.88
2023-04-18T10:38:59.994Z,100635.41
2023-04-18T10:41:41.058Z,100636.38
2023-04-18T10:44:28.830Z,100614.00
2023-04-18T10:47:32.456Z,100637.97
2023-04-18T10:50:19.601Z,100631.47
2023-04-18T10:52:56.903Z,100638.31
2023-04-18T10:55:34.303Z,100635.47
2023-04-18T10:58:08.658Z,100634.38
2023-04-18T11:00:49.014Z,100624.34
2023-04-18T11:03:37.356Z,100629.50
2023-04-18T11:06:14.062Z,100621.38
2023-04-18T11:08:52.155Z,100617.69
2023-04-18T11:11:31.786Z,100626.63
2023-04-18T11:14:08.686Z,100630.94
2023-04-18T11:16:48.266Z,100628.84
2023-04-18T11:19:31.286Z,100635.38
2023-04-18T11:22:06.352Z,100628.72
2023-04-18T11:24:43.204Z,100631.19
2023-04-18T11:27:22.912Z,100641.88
2023-04-18T11:30:02.928Z,100639.97
2023-04-18T11:32:43.922Z,100623.38
2023-04-18T11:35:29.331Z,100632.34
2023-04-18T11:38:11.435Z,100625.78
2023-04-18T11:40:52.167Z,100626.59
2023-04-18T11:43:32.937Z,100635.38
2023-04-18T11:46:10.119Z,100633.91
2023-04-18T11:48:46.483Z,100625.44
2023-04-18T11:51:49.441Z,100632.47
2023-04-18T11:54:52.830Z,100633.91
2023-04-18T11:57:32.265Z,100633.13
2023-04-18T12:00:08.130Z,100624.03
2023-04-18T12:02:53.348Z,100621.50
2023-04-18T12:05:33.955Z,100630.44
2023-04-18T12:08:20.149Z,100625.81
2023-04-18T12:10:55.809Z,100638.31
2023-04-18T12:13:40.972Z,100632.53
2023-04-18T12:16:17.994Z,100624.72
2023-04-18T12:18:52.737Z,100627.56
2023-04-18T12:21:31.434Z,100621.31
2023-04-18T12:24:15.922Z,100611.06
2023-04-18T12:27:00.612Z,100624.19
2023-04-18T12:29:40.302Z,100630.28
2023-04-18T12:32:17.722Z,100619.06
2023-04-18T12:34:59.326Z,100611.94
2023-04-18T12:37:39.400Z,100628.41
2023-04-18T12:40:19.323Z,100610.78
2023-04-18T12:42:57.024Z,100610.31
2023-04-18T12:45:37.440Z,100621.50
2023-04-18T12:48:20.453Z,100607.91
2023-04-18T12:51:10.831Z,100608.06
2023-04-18T12:53:46.671Z,100588.75
2023-04-18T12:56:28.151Z,100618.47
2023-04-18T12:59:16.847Z,100612.06
2023-04-18T13:01:54.359Z,100619.56
2023-04-18T13:04:30.929Z,100612.56
2023-04-18T13:07:03.444Z,100613.66
2023-04-18T13:09:37.769Z,100611.13
2023-04-18T13:12:15.156Z,100613.50
2023-04-18T13:14:48.797Z,100616.06
2023-04-18T13:17:24.224Z,100592.28
2023-04-18T13:19:58.381Z,100604.75
2023-04-18T13:22:46.089Z,100619.28
2023-04-18T13:25:17.925Z,100604.56
2023-04-18T13:27:53.893Z,100613.34
2023-04-18T13:30:40.515Z,100615.44
2023-04-18T13:33:25.315Z,100613.69
2023-04-18T13:35:57.826Z,100613.84
2023-04-18T13:38:34.189Z,100609.84
2023-04-18T13:41:12.777Z,100614.94
2023-04-18T13:43:47.491Z,100616.41
2023-04-18T13:46:29.823Z,100611.28
2023-04-18T13:49:09.835Z,100607.75
2023-04-18T13:51:45.734Z,100602.19
2023-04-18T13:54:31.366Z,100612.09
2023-04-18T13:57:05.415Z,100609.38
2023-04-18T13:59:46.514Z,100606.50
2023-04-18T14:02:31.516Z,100605.03
2023-04-18T14:05:23.006Z,100609.97
2023-04-18T14:08:02.273Z,100621.13
2023-04-18T14:10:33.775Z,100616.03
2023-04-18T14:13:13.567Z,100627.50
2023-04-18T14:15:50.736Z,100614.50
2023-04-18T14:18:27.628Z,100619.09
2023-04-18T14:21:08.554Z,100618.78
2023-04-18T14:23:43.520Z,100620.91
2023-04-18T14:26:19.011Z,100611.63
2023-04-18T14:29:05.252Z,100591.09
2023-04-18T14:31:49.306Z,100619.38
2023-04-18T14:34:29.029Z,100615.13
2023-04-18T14:37:04.046Z,100621.09
2023-04-18T14:39:49.483Z,100619.94
2023-04-18T14:42:24.152Z,100625.78
2023-04-18T14:44:58.453Z,100616.22
2023-04-18T14:47:36.152Z,100613.00
2023-04-18T14:50:12.469Z,100613.22
2023-04-18T14:52:47.070Z,100611.56
2023-04-18T14:55:20.209Z,100609.97
2023-04-18T14:57:56.021Z,100591.00
2023-04-18T15:00:28.467Z,100616.00
2023-04-18T15:03:07.693Z,100613.41
2023-04-18T15:05:49.967Z,100610.28
2023-04-18T15:08:33.075Z,100606.16
2023-04-18T15:11:09.708Z,100614.16
2023-04-18T15:13:48.012Z,100604.06
2023-04-18T15:16:20.730Z,100606.31
2023-04-18T15:19:00.858Z,100606.50
2023-04-18T15:21:39.591Z,100607.97
2023-04-18T15:24:12.666Z,100602.88
2023-04-18T15:26:45.562Z,100616.09
2023-04-18T15:29:19.839Z,100609.88
2023-04-18T15:31:52.792Z,100617.97
2023-04-18T15:34:28.073Z,100616.34
2023-04-18T15:37:07.318Z,100616.34
2023-04-18T15:39:41.056Z,100612.50
2023-04-18T15:42:18.503Z,100614.56
2023-04-18T15:44:52.994Z,100621.41
2023-04-18T15:47:27.998Z,100617.72
2023-04-18T15:50:08.643Z,100622.03
2023-04-18T15:52:44.780Z,100616.81
2023-04-18T15:55:20.127Z,100621.16
2023-04-18T15:57:55.182Z,100620.16
2023-04-18T16:00:34.696Z,100618.19
2023-04-18T16:03:10.185Z,100609.56
2023-04-18T16:05:50.218Z,100613.88
2023-04-18T16:08:26.987Z,100612.28
2023-04-18T16:10:58.189Z,100618.16
2023-04-18T16:13:31.616Z,100620.88
2023-04-18T16:16:06.942Z,100624.38
2023-04-18T16:18:44.159Z,100620.25
2023-04-18T16:21:23.491Z,100621.31
2023-04-18T16:24:00.563Z,100622.88
2023-04-18T16:26:38.494Z,100612.78
2023-04-18T16:29:15.641Z,100626.56
2023-04-18T16:31:49.424Z,100632.78
2023-04-18T16:34:23.021Z,100631.50
2023-04-18T16:36:58.986Z,100625.09
2023-04-18T16:39:34.073Z,100627.72
2023-04-18T16:42:15.376Z,100610.72
2023-04-18T16:44:54.101Z,100634.56
2023-04-18T16:47:28.828Z,100634.25
2023-04-18T16:50:17.699Z,100632.25
2023-04-18T16:52:55.168Z,100637.47
2023-04-18T16:55:27.339Z,100638.28
2023-04-18T16:58:09.418Z,100642.31
2023-04-18T17:00:46.377Z,100639.50
2023-04-18T17:03:18.507Z,100638.72
2023-04-18T17:05:57.103Z,100637.72
2023-04-18T17:08:36.791Z,100636.72
2023-04-18T17:11:13.646Z,100648.44
2023-04-18T17:13:55.666Z,100647.41
2023-04-18T17:16:30.006Z,100647.09
2023-04-18T17:19:10.114Z,100658.00
2023-04-18T17:21:48.107Z,100659.72
2023-04-18T17:24:31.301Z,100659.69
2023-04-18T17:27:06.819Z,100671.41
2023-04-18T17:29:45.936Z,100660.75
2023-04-18T17:32:33.231Z,100664.47
2023-04-18T17:35:07.846Z,100664.84
2023-04-18T17:37:50.277Z,100669.44
2023-04-18T17:40:30.452Z,100653.69
2023-04-18T17:43:19.977Z,100662.81
2023-04-18T17:45:58.085Z,100672.88
2023-04-18T17:48:33.725Z,100675.13
2023-04-18T17:51:07.209Z,100674.72
2023-04-18T17:53:51.571Z,100676.06
2023-04-18T17:56:28.174Z,100649.22
2023-04-18T17:58:59.037Z,100672.75
2023-04-18T18:01:38.047Z,100683.41
2023-04-18T18:04:13.457Z,100654.25
2023-04-18T18:07:00.524Z,100680.06
2023-04-18T18:09:41.757Z,100666.66
2023-04-18T18:12:25.028Z,100685.16
2023-04-18T18:15:00.530Z,100680.56
2023-04-18T18:17:36.004Z,100673.13
2023-04-18T18:20:18.283Z,100663.66
2023-04-18T18:22:53.158Z,100680.94
2023-04-18T18:25:33.752Z,100679.44
2023-04-18T18:28:17.314Z,100663.00
2023-04-18T18:30:53.277Z,100678.56
2023-04-18T18:33:32.368Z,100681.41
2023-04-18T18:36:10.880Z,100677.09
2023-04-18T18:38:45.544Z,100684.66
2023-04-18T18:41:18.812Z,100672.75
2023-04-18T18:44:08.755Z,100697.19
2023-04-18T18:46:43.379Z,100688.66
2023-04-18T18:49:20.511Z,100692.38
2023-04-18T18:52:07.377Z,100687.22
2023-04-18T18:54:45.290Z,100698.31
2023-04-18T18:57:30.093Z,100696.47
2023-04-18T19:00:05.893Z,100664.66
2023-04-18T19:02:38.979Z,100691.53
2023-04-18T19:05:18.429Z,100701.66
2023-04-18T19:08:00.172Z,100691.69
2023-04-18T19:10:41.231Z,100679.19
2023-04-18T19:13:18.183Z,100699.63
2023-04-18T19:15:57.445Z,100679.19
2023-04-18T19:18:33.057Z,100693.13
2023-04-18T19:21:10.302Z,100687.00
2023-04-18T19:23:49.113Z,100689.41
2023-04-18T19:26:25.895Z,100690.22
2023-04-18T19:29:01.726Z,100691.56
2023-04-18T19:31:45.546Z,100696.91
2023-04-18T19:34:26.989Z,100694.00
2023-04-18T19:37:03.477Z,100699.63
2023-04-18T19:39:36.553Z,100695.09
2023-04-18T19:42:15.681Z,100676.25
2023-04-18T19:45:00.607Z,100673.56
2023-04-18T19:47:38.810Z,100694.34
2023-04-18T19:50:33.897Z,100696.75
2023-04-18T19:53:14.088Z,100689.03
2023-04-18T19:55:51.873Z,100699.22
2023-04-18T19:58:47.039Z,100679.97
2023-04-18T20:01:25.739Z,100697.94
2023-04-18T20:04:04.469Z,100695.13
2023-04-18T20:06:45.080Z,100668.09
2023-04-18T20:09:20.422Z,100700.47
2023-04-18T20:11:52.108Z,100693.25
2023-04-18T20:14:26.249Z,100695.13
2023-04-18T20:17:08.564Z,100692.53
2023-04-18T20:19:49.320Z,100674.28
2023-04-18T20:22:30.484Z,100688.16
2023-04-18T20:25:07.331Z,100697.69
2023-04-18T20:27:41.471Z,100684.50
2023-04-18T20:30:22.531Z,100686.13
2023-04-18T20:33:08.029Z,100688.50
2023-04-18T20:35:51.509Z,100682.25
2023-04-18T20:38:30.001Z,100687.00
2023-04-18T20:41:06.750Z,100686.94
2023-04-18T20:43:37.550Z,100688.22
2023-04-18T20:46:25.223Z,100684.97
2023-04-18T20:48:59.672Z,100690.88
2023-04-18T20:51:46.732Z,100685.47
2023-04-18T20:54:25.481Z,100686.56
2023-04-18T20:57:05.304Z,100677.97
2023-04-18T20:59:38.716Z,100674.47
2023-04-18T21:02:15.760Z,100687.56
2023-04-18T21:04:54.357Z,100688.38
2023-04-18T21:07:36.109Z,100687.31
2023-04-18T21:10:28.072Z,100681.09
2023-04-18T21:13:10.573Z,100690.81
2023-04-18T21:15:51.192Z,100686.50
2023-04-18T21:18:33.340Z,100681.91
2023-04-18T21:21:10.690Z,100686.28
2023-04-18T21:23:50.603Z,100688.97
2023-04-18T21:26:27.073Z,100685.53
2023-04-18T21:29:06.378Z,100676.63
2023-04-18T21:31:43.814Z,100675.34
2023-04-18T21:34:25.612Z,100673.00
2023-04-18T21:37:04.653Z,100678.69
2023-04-18T21:39:51.813Z,100678.16
2023-04-18T21:42:29.506Z,100673.34
2023-04-18T21:45:04.069Z,100675.56
2023-04-18T21:47:36.886Z,100658.41
2023-04-18T21:50:16.724Z,100624.16
2023-04-18T21:52:56.870Z,100664.88
2023-04-18T21:55:34.741Z,100669.19
2023-04-18T21:58:10.048Z,100674.34
2023-04-18T22:00:49.735Z,100676.59
2023-04-18T22:03:25.866Z,100677.75
2023-04-18T22:06:01.961Z,100671.38
2023-04-18T22:08:43.444Z,100672.28
2023-04-18T22:11:24.288Z,100669.94
2023-04-18T22:14:04.636Z,100654.91
2023-04-18T22:16:45.513Z,100668.13
2023-04-18T22:19:29.369Z,100673.50
2023-04-18T22:22:04.358Z,100669.25
2023-04-18T22:24:46.809Z,100660.75
2023-04-18T22:27:31.078Z,100650.59
2023-04-18T22:30:07.192Z,100656.28
2023-04-18T22:32:49.319Z,100665.19
2023-04-18T22:35:24.142Z,100663.84
2023-04-18T22:38:11.981Z,100661.16
2023-04-18T22:40:50.064Z,100658.75
2023-04-18T22:43:29.229Z,100650.72
2023-04-18T22:46:09.059Z,100655.53
2023-04-18T22:48:48.067Z,100648.66
2023-04-18T22:51:22.372Z,100650.50
2023-04-18T22:54:00.682Z,100641.63
2023-04-18T22:56:39.428Z,100637.31
2023-04-18T22:59:20.526Z,100620.69
2023-04-18T23:01:54.933Z,100629.22
2023-04-18T23:04:32.548Z,100613.94
2023-04-18T23:07:07.124Z,100619.28
2023-04-18T23:09:45.307Z,100619.53
2023-04-18T23:12:32.794Z,100599.53
2023-04-18T23:15:18.393Z,100607.28
2023-04-18T23:17:59.671Z,100609.47
2023-04-18T23:20:47.169Z,100627.19
2023-04-18T23:23:23.085Z,100612.19
2023-04-18T23:25:59.461Z,100606.31
2023-04-18T23:28:31.308Z,100609.06
2023-04-18T23:31:12.893Z,100612.06
2023-04-18T23:33:58.861Z,100605.94
2023-04-18T23:36:40.537Z,100596.88
2023-04-18T23:39:16.957Z,100596.88
2023-04-18T23:41:50.015Z,100594.78
2023-04-18T23:44:24.057Z,100593.44
2023-04-18T23:46:58.335Z,100592.16
2023-04-18T23:49:33.456Z,100594.41
2023-04-18T23:52:08.285Z,100587.69
2023-04-18T23:54:45.710Z,100566.03
2023-04-18T23:57:25.441Z,100583.69
